Time;durP1;ratioP1;P1;durP2;ratioP2;P2;SDS_P1;SDS_P2;PMS_P1;PMS_P2;Temp;Humidity;BMP_temperature;BMP_pressure;BME280_temperature;BME280_humidity;BME280_pressure;Samples;Min_cycle;Max_cycle;Signal;HPM_P1;HPM_P2
2023/09/18 00:00:26;;;;;;;7.18;2.75;;;20.50;99.90;;;;;;5071917;28;20202;-73
2023/09/18 00:02:52;;;;;;;2.78;1.63;;;20.30;99.90;;;;;;5072095;28;20305;-75
2023/09/18 00:05:19;;;;;;;4.72;2.45;;;20.20;99.90;;;;;;5071815;28;20325;-70
2023/09/18 00:07:46;;;;;;;4.07;1.90;;;20.20;99.90;;;;;;5072517;28;20238;-76
2023/09/18 00:10:14;;;;;;;3.67;2.20;;;20.30;99.90;;;;;;5071890;28;20213;-68
2023/09/18 00:12:41;;;;;;;4.90;2.67;;;20.30;99.90;;;;;;5071518;28;20206;-75
2023/09/18 00:15:09;;;;;;;2.15;2.03;;;20.30;99.90;;;;;;5071972;28;20702;-75
2023/09/18 00:17:37;;;;;;;3.00;2.28;;;20.40;99.90;;;;;;5071152;28;20209;-75
2023/09/18 00:20:06;;;;;;;3.10;2.22;;;20.30;99.90;;;;;;5071769;28;20368;-74
2023/09/18 00:22:33;;;;;;;4.63;2.45;;;20.30;99.90;;;;;;5071428;28;20203;-67
2023/09/18 00:25:01;;;;;;;5.63;2.58;;;20.30;99.90;;;;;;5071528;28;20664;-75
2023/09/18 00:27:28;;;;;;;4.68;2.60;;;20.30;99.90;;;;;;5071248;28;20230;-71
2023/09/18 00:29:55;;;;;;;4.20;2.53;;;20.30;99.90;;;;;;5071398;28;20297;-71
2023/09/18 00:32:21;;;;;;;5.97;3.22;;;20.30;99.90;;;;;;5071492;28;20218;-68
2023/09/18 00:34:50;;;;;;;3.22;2.70;;;20.30;99.90;;;;;;5071676;28;20285;-67
2023/09/18 00:37:17;;;;;;;4.07;2.50;;;20.30;99.90;;;;;;5071921;28;20293;-71
2023/09/18 00:39:44;;;;;;;7.95;3.33;;;20.40;99.90;;;;;;5071372;28;20205;-70
2023/09/18 00:42:13;;;;;;;4.40;2.38;;;20.40;99.90;;;;;;5071225;28;20285;-73
2023/09/18 00:44:41;;;;;;;5.55;2.70;;;20.40;99.90;;;;;;5071119;28;20245;-75
2023/09/18 00:47:08;;;;;;;6.57;2.78;;;20.40;99.90;;;;;;5071534;28;20198;-75
2023/09/18 00:49:37;;;;;;;6.93;3.10;;;20.50;99.90;;;;;;5071059;28;20289;-74
2023/09/18 00:52:07;;;;;;;4.20;3.28;;;20.50;99.90;;;;;;5071041;28;20292;-76
2023/09/18 00:54:35;;;;;;;4.68;3.03;;;20.50;99.90;;;;;;5071214;28;20210;-79
2023/09/18 00:57:03;;;;;;;3.20;2.58;;;20.60;99.90;;;;;;5071126;28;20289;-72
2023/09/18 00:59:30;;;;;;;3.70;3.38;;;20.50;99.90;;;;;;5070690;28;20736;-72
2023/09/18 01:01:58;;;;;;;3.90;2.83;;;20.50;99.90;;;;;;5071251;28;20208;-74
2023/09/18 01:04:28;;;;;;;3.75;2.65;;;20.50;99.90;;;;;;5070606;28;20324;-74
2023/09/18 01:06:56;;;;;;;4.13;2.63;;;20.50;99.90;;;;;;5071075;28;20202;-73
2023/09/18 01:09:25;;;;;;;6.35;3.38;;;20.50;99.90;;;;;;5070579;28;20217;-80
2023/09/18 01:11:58;;;;;;;3.08;2.83;;;20.50;99.90;;;;;;5071429;28;20306;-79
2023/09/18 01:14:32;;;;;;;3.85;2.60;;;20.50;99.90;;;;;;5070594;28;20655;-79
2023/09/18 01:17:01;;;;;;;5.15;3.45;;;20.50;99.90;;;;;;5070981;28;20293;-78
2023/09/18 01:19:39;;;;;;;4.40;2.92;;;20.40;99.90;;;;;;5070705;28;20339;-78
2023/09/18 01:22:06;;;;;;;5.15;3.20;;;20.40;99.90;;;;;;5070726;28;20741;-77
2023/09/18 01:24:36;;;;;;;4.50;2.38;;;20.40;99.90;;;;;;5070431;28;20324;-78
2023/09/18 01:27:04;;;;;;;3.35;2.58;;;20.30;99.90;;;;;;5071045;28;20302;-64
2023/09/18 01:29:30;;;;;;;3.22;2.40;;;20.30;99.90;;;;;;5069951;28;20197;-80
2023/09/18 01:31:58;;;;;;;10.85;4.05;;;20.30;99.90;;;;;;5070863;28;20292;-82
2023/09/18 01:34:29;;;;;;;3.47;2.72;;;20.30;99.90;;;;;;5070364;28;20244;-77
2023/09/18 01:36:57;;;;;;;6.38;2.58;;;20.30;99.90;;;;;;5070515;28;20289;-78
2023/09/18 01:39:27;;;;;;;4.85;2.55;;;20.40;99.90;;;;;;5070596;28;20233;-78
2023/09/18 01:41:55;;;;;;;3.95;2.63;;;20.30;99.90;;;;;;5070788;28;20748;-77
2023/09/18 01:44:22;;;;;;;6.32;3.10;;;20.30;99.90;;;;;;5070438;28;20269;-74
2023/09/18 01:46:51;;;;;;;4.55;2.78;;;20.30;99.90;;;;;;5070615;28;20285;-66
2023/09/18 01:49:27;;;;;;;3.40;2.33;;;20.30;99.90;;;;;;5071268;28;20205;-74
2023/09/18 01:51:53;;;;;;;3.67;3.10;;;20.20;99.90;;;;;;5070604;28;20296;-73
2023/09/18 01:54:20;;;;;;;4.43;2.80;;;20.20;99.90;;;;;;5070206;28;20249;-67
2023/09/18 01:56:47;;;;;;;4.47;3.45;;;20.10;99.90;;;;;;5073793;28;20732;-74
2023/09/18 01:59:15;;;;;;;6.18;2.65;;;19.90;99.90;;;;;;5080248;28;20289;-67
2023/09/18 02:01:42;;;;;;;3.88;2.78;;;19.90;99.90;;;;;;5090245;28;20684;-67
2023/09/18 02:04:09;;;;;;;6.65;3.38;;;19.90;99.90;;;;;;5090095;28;20792;-75
2023/09/18 02:06:36;;;;;;;6.40;3.03;;;19.90;99.90;;;;;;5089871;28;20571;-75
2023/09/18 02:09:04;;;;;;;6.88;3.05;;;19.90;99.90;;;;;;5090663;28;20228;-75
2023/09/18 02:11:31;;;;;;;5.80;3.10;;;19.90;99.90;;;;;;5090258;28;20212;-75
2023/09/18 02:13:57;;;;;;;4.57;3.00;;;20.00;99.90;;;;;;5091117;28;20293;-74
2023/09/18 02:16:26;;;;;;;5.50;3.33;;;19.80;99.90;;;;;;5090402;28;20293;-67
2023/09/18 02:18:55;;;;;;;10.00;3.60;;;19.50;99.90;;;;;;5090213;28;20730;-67
2023/09/18 02:21:23;;;;;;;4.88;3.03;;;19.50;99.90;;;;;;5090055;28;20220;-67
2023/09/18 02:23:51;;;;;;;7.10;2.92;;;19.70;99.90;;;;;;5090350;28;20292;-73
2023/09/18 02:26:18;;;;;;;3.28;2.42;;;19.70;99.90;;;;;;5090793;28;20202;-74
2023/09/18 02:28:45;;;;;;;3.78;3.03;;;19.80;99.90;;;;;;5090456;28;20673;-74
2023/09/18 02:31:12;;;;;;;5.25;3.40;;;19.80;99.90;;;;;;5082758;28;20289;-74
2023/09/18 02:33:40;;;;;;;3.15;2.55;;;19.80;99.90;;;;;;5069443;28;20297;-74
2023/09/18 02:36:08;;;;;;;3.28;2.97;;;19.90;99.90;;;;;;5070212;28;20296;-74
2023/09/18 02:38:34;;;;;;;4.22;3.55;;;19.90;99.90;;;;;;5069784;28;20241;-73
2023/09/18 02:41:02;;;;;;;6.45;2.75;;;19.80;99.90;;;;;;5069598;28;20293;-75
2023/09/18 02:43:29;;;;;;;4.63;2.38;;;19.70;99.90;;;;;;5073471;28;20293;-70
2023/09/18 02:45:55;;;;;;;4.13;2.60;;;19.70;99.90;;;;;;5073735;28;20643;-75
2023/09/18 02:48:22;;;;;;;6.70;4.05;;;19.70;99.90;;;;;;5073120;28;20680;-73
2023/09/18 02:50:51;;;;;;;3.70;2.92;;;19.70;99.90;;;;;;5073619;28;20253;-73
2023/09/18 02:53:19;;;;;;;5.25;3.45;;;19.70;99.90;;;;;;5073743;28;20319;-73
2023/09/18 02:55:46;;;;;;;4.47;3.17;;;19.70;99.90;;;;;;5073688;28;20206;-73
2023/09/18 02:58:13;;;;;;;3.13;2.80;;;19.60;99.90;;;;;;5073944;28;20256;-71
2023/09/18 03:00:43;;;;;;;5.22;3.70;;;19.60;99.90;;;;;;5072987;28;20237;-67
2023/09/18 03:03:10;;;;;;;4.90;3.25;;;19.60;99.90;;;;;;5073229;28;20199;-74
2023/09/18 03:05:37;;;;;;;5.47;3.00;;;19.60;99.90;;;;;;5072502;28;20333;-76
2023/09/18 03:08:06;;;;;;;2.72;2.53;;;19.70;99.90;;;;;;5073252;28;20285;-68
2023/09/18 03:10:35;;;;;;;3.00;2.63;;;19.70;99.90;;;;;;5073074;28;20289;-70
2023/09/18 03:13:02;;;;;;;3.50;3.20;;;19.80;99.90;;;;;;5073296;28;20210;-66
2023/09/18 03:15:29;;;;;;;7.78;5.38;;;19.90;99.90;;;;;;5072857;28;20206;-74
2023/09/18 03:17:56;;;;;;;10.25;8.10;;;19.80;99.90;;;;;;5072763;28;20289;-74
2023/09/18 03:20:24;;;;;;;17.38;15.63;;;19.70;99.90;;;;;;5072536;28;20628;-70
2023/09/18 03:22:52;;;;;;;19.48;17.48;;;19.70;99.90;;;;;;5072912;28;20700;-72
2023/09/18 03:25:20;;;;;;;17.40;15.45;;;19.70;99.90;;;;;;5072978;28;20320;-67
2023/09/18 03:27:47;;;;;;;15.30;13.88;;;19.60;99.90;;;;;;5073323;28;20651;-74
2023/09/18 03:30:15;;;;;;;11.07;9.77;;;19.50;99.90;;;;;;5073242;28;20285;-73
2023/09/18 03:32:42;;;;;;;14.85;10.55;;;19.60;99.90;;;;;;5072355;28;20205;-74
2023/09/18 03:35:15;;;;;;;10.93;7.10;;;19.60;99.90;;;;;;5072752;28;20643;-74
2023/09/18 03:37:42;;;;;;;9.90;7.22;;;19.70;99.90;;;;;;5072478;28;20263;-73
2023/09/18 03:40:10;;;;;;;7.30;5.88;;;19.70;99.90;;;;;;5072907;28;20210;-73
2023/09/18 03:42:38;;;;;;;6.55;5.63;;;19.80;99.90;;;;;;5072170;28;20294;-73
2023/09/18 03:45:07;;;;;;;7.03;6.10;;;19.70;99.90;;;;;;5072559;28;20320;-73
2023/09/18 03:47:35;;;;;;;8.73;5.28;;;19.60;99.90;;;;;;5071823;28;20294;-72
2023/09/18 03:50:02;;;;;;;5.03;3.92;;;19.60;99.90;;;;;;5072656;28;20285;-73
2023/09/18 03:52:29;;;;;;;6.80;3.83;;;19.60;99.90;;;;;;5071779;28;20256;-73
2023/09/18 03:54:56;;;;;;;11.82;4.30;;;19.60;99.90;;;;;;5072465;28;20294;-72
2023/09/18 03:57:23;;;;;;;5.28;4.25;;;19.50;99.90;;;;;;5072099;28;20245;-67
2023/09/18 03:59:51;;;;;;;5.40;3.65;;;19.50;99.90;;;;;;5072255;28;20241;-71
2023/09/18 04:02:18;;;;;;;4.95;3.50;;;19.40;99.90;;;;;;5071859;28;20289;-68
2023/09/18 04:04:45;;;;;;;13.10;4.28;;;19.40;99.90;;;;;;5072164;28;20261;-67
2023/09/18 04:07:16;;;;;;;8.32;3.90;;;19.50;99.90;;;;;;5072047;28;20768;-72
2023/09/18 04:09:42;;;;;;;4.93;3.10;;;19.40;99.90;;;;;;5071721;28;20210;-72
2023/09/18 04:12:10;;;;;;;5.35;3.58;;;19.30;99.90;;;;;;5072010;28;20281;-67
2023/09/18 04:14:37;;;;;;;6.20;3.75;;;19.30;99.90;;;;;;5071692;28;20241;-66
2023/09/18 04:17:05;;;;;;;6.30;3.58;;;19.30;99.90;;;;;;5071545;28;20206;-67
2023/09/18 04:19:32;;;;;;;3.70;3.40;;;19.30;99.90;;;;;;5071600;28;20293;-74
2023/09/18 04:21:59;;;;;;;10.00;3.97;;;19.30;99.90;;;;;;5072037;28;20292;-73
2023/09/18 04:24:27;;;;;;;7.10;3.60;;;19.20;99.90;;;;;;5071355;28;20632;-74
2023/09/18 04:26:54;;;;;;;13.13;4.53;;;19.30;99.90;;;;;;5071735;28;20301;-73
2023/09/18 04:29:21;;;;;;;6.28;3.03;;;19.40;99.90;;;;;;5070785;28;20289;-66
2023/09/18 04:31:48;;;;;;;6.32;3.75;;;19.30;99.90;;;;;;5071991;28;20293;-67
2023/09/18 04:34:16;;;;;;;5.43;4.35;;;19.20;99.90;;;;;;5071868;28;20202;-74
2023/09/18 04:36:44;;;;;;;5.65;3.75;;;19.20;99.90;;;;;;5071498;28;20241;-67
2023/09/18 04:39:11;;;;;;;12.55;3.58;;;19.20;99.90;;;;;;5071440;28;20202;-73
2023/09/18 04:41:38;;;;;;;7.22;3.78;;;19.20;99.90;;;;;;5070843;28;20762;-73
2023/09/18 04:44:07;;;;;;;7.03;3.03;;;19.10;99.90;;;;;;5071071;28;20229;-73
2023/09/18 04:46:34;;;;;;;6.28;3.17;;;19.10;99.90;;;;;;5070941;28;20249;-71
2023/09/18 04:49:03;;;;;;;6.30;3.65;;;19.10;99.90;;;;;;5071471;28;20204;-72
2023/09/18 04:51:32;;;;;;;5.88;3.33;;;19.00;99.90;;;;;;5070998;28;20203;-72
2023/09/18 04:53:59;;;;;;;5.97;4.28;;;18.90;99.90;;;;;;5070854;28;20749;-73
2023/09/18 04:56:26;;;;;;;6.82;3.63;;;18.90;99.90;;;;;;5070634;28;20300;-68
2023/09/18 04:58:53;;;;;;;6.60;4.07;;;18.90;99.90;;;;;;5070950;28;20227;-71
2023/09/18 05:01:20;;;;;;;6.22;3.60;;;19.00;99.90;;;;;;5070369;28;20284;-70
2023/09/18 05:03:48;;;;;;;9.27;4.72;;;19.10;99.90;;;;;;5070831;28;20245;-72
2023/09/18 05:06:16;;;;;;;9.45;5.38;;;19.10;99.90;;;;;;5071130;28;20320;-72
2023/09/18 05:08:45;;;;;;;11.00;4.43;;;19.00;99.90;;;;;;5070871;28;20209;-73
2023/09/18 05:11:12;;;;;;;7.18;4.40;;;19.00;99.90;;;;;;5070933;28;20662;-72
2023/09/18 05:13:38;;;;;;;9.20;4.47;;;18.90;99.90;;;;;;5070618;28;20210;-68
2023/09/18 05:16:05;;;;;;;5.03;3.55;;;19.00;99.90;;;;;;5071029;28;20229;-69
2023/09/18 05:18:32;;;;;;;4.68;3.17;;;18.90;99.90;;;;;;5070466;28;20293;-72
2023/09/18 05:20:59;;;;;;;5.90;4.03;;;18.90;99.90;;;;;;5070959;28;20233;-68
2023/09/18 05:23:27;;;;;;;7.95;3.97;;;18.90;99.90;;;;;;5070167;28;20205;-72
2023/09/18 05:25:55;;;;;;;7.35;4.15;;;18.90;99.90;;;;;;5070822;28;20248;-75
2023/09/18 05:28:22;;;;;;;10.10;3.97;;;19.00;99.90;;;;;;5070458;28;20240;-76
2023/09/18 05:30:48;;;;;;;6.35;4.45;;;18.90;99.90;;;;;;5070913;28;20293;-70
2023/09/18 05:33:16;;;;;;;6.18;3.53;;;18.90;99.90;;;;;;5070430;28;20246;-68
2023/09/18 05:35:44;;;;;;;7.80;3.90;;;19.00;99.90;;;;;;5085057;28;20270;-73
2023/09/18 05:38:13;;;;;;;6.03;3.65;;;19.00;99.90;;;;;;5083770;28;20740;-74
2023/09/18 05:40:40;;;;;;;5.55;3.72;;;19.00;99.90;;;;;;5089394;28;20205;-74
2023/09/18 05:43:08;;;;;;;4.85;3.45;;;18.90;99.90;;;;;;5090025;28;20285;-73
2023/09/18 05:45:35;;;;;;;11.68;4.07;;;19.00;99.90;;;;;;5089850;28;20235;-73
2023/09/18 05:48:03;;;;;;;6.85;4.13;;;18.90;99.90;;;;;;5086173;28;20297;-73
2023/09/18 05:50:31;;;;;;;8.15;4.05;;;19.10;99.90;;;;;;5085657;28;20259;-73
2023/09/18 05:53:00;;;;;;;7.10;4.13;;;19.20;99.90;;;;;;5086477;28;20228;-73
2023/09/18 05:55:27;;;;;;;9.07;5.00;;;19.20;99.90;;;;;;5090266;28;20213;-73
2023/09/18 05:57:54;;;;;;;8.32;4.57;;;19.10;99.90;;;;;;5090681;28;20229;-73
2023/09/18 06:00:23;;;;;;;6.43;4.75;;;19.20;99.90;;;;;;5073037;28;20293;-71
2023/09/18 06:02:51;;;;;;;9.32;5.20;;;19.30;99.90;;;;;;5070506;28;20748;-73
2023/09/18 06:05:21;;;;;;;4.97;4.30;;;19.30;99.90;;;;;;5070460;28;20301;-74
2023/09/18 06:07:48;;;;;;;10.23;5.22;;;19.40;99.90;;;;;;5087330;28;20213;-74
2023/09/18 06:10:16;;;;;;;11.82;7.57;;;19.50;99.90;;;;;;5090763;28;20545;-74
2023/09/18 06:12:43;;;;;;;25.70;9.07;;;19.60;99.90;;;;;;5090008;28;20607;-74
2023/09/18 06:15:11;;;;;;;27.83;9.10;;;19.50;99.90;;;;;;5090494;28;20208;-74
2023/09/18 06:17:41;;;;;;;16.73;9.00;;;19.60;99.90;;;;;;5094044;28;20404;-74
2023/09/18 06:20:10;;;;;;;17.77;9.60;;;19.70;99.90;;;;;;5094458;28;20316;-74
2023/09/18 06:22:38;;;;;;;16.33;9.55;;;19.90;99.90;;;;;;5091620;28;20201;-74
2023/09/18 06:25:05;;;;;;;26.02;10.05;;;19.90;99.90;;;;;;5076953;28;20206;-74
2023/09/18 06:27:35;;;;;;;20.60;10.35;;;20.00;99.90;;;;;;5083705;28;20256;-74
2023/09/18 06:30:03;;;;;;;22.25;11.05;;;20.10;99.90;;;;;;5094592;28;20197;-74
2023/09/18 06:32:29;;;;;;;31.30;12.05;;;20.20;99.90;;;;;;5092070;28;20252;-74
2023/09/18 06:34:58;;;;;;;24.35;12.13;;;20.20;99.90;;;;;;5073953;28;20286;-74
2023/09/18 06:37:25;;;;;;;27.75;12.70;;;20.10;99.90;;;;;;5073512;28;20212;-75
2023/09/18 06:39:52;;;;;;;22.95;10.93;;;20.00;99.90;;;;;;5073642;28;20226;-73
2023/09/18 06:42:19;;;;;;;19.17;11.38;;;20.20;99.90;;;;;;5074495;28;20202;-71
2023/09/18 06:44:46;;;;;;;21.48;10.13;;;20.30;99.90;;;;;;5073935;28;20234;-72
2023/09/18 06:47:14;;;;;;;36.58;11.85;;;20.50;99.90;;;;;;5081186;28;20237;-72
2023/09/18 06:49:41;;;;;;;33.75;12.32;;;20.50;99.90;;;;;;5093244;28;20584;-72
2023/09/18 06:52:09;;;;;;;28.40;11.07;;;20.50;99.90;;;;;;5093879;28;20742;-72
2023/09/18 06:54:37;;;;;;;31.05;11.50;;;20.50;99.90;;;;;;5079837;28;20292;-72
2023/09/18 06:57:04;;;;;;;27.27;11.38;;;20.50;99.90;;;;;;5083002;28;20218;-72
2023/09/18 06:59:33;;;;;;;22.20;11.45;;;20.50;99.90;;;;;;5090280;28;20255;-71
2023/09/18 07:02:01;;;;;;;32.72;11.88;;;20.60;99.90;;;;;;5081733;28;20214;-72
2023/09/18 07:04:28;;;;;;;23.67;10.90;;;20.70;99.90;;;;;;5080494;28;20225;-72
2023/09/18 07:06:56;;;;;;;24.20;10.90;;;20.70;99.90;;;;;;5093331;28;20324;-76
2023/09/18 07:09:25;;;;;;;25.45;12.18;;;20.70;99.90;;;;;;5092480;28;20744;-75
2023/09/18 07:11:52;;;;;;;22.45;11.35;;;20.80;99.90;;;;;;5072385;28;20209;-76
2023/09/18 07:14:19;;;;;;;19.52;11.73;;;20.80;99.90;;;;;;5073166;28;20616;-73
2023/09/18 07:16:46;;;;;;;28.20;12.80;;;20.90;99.90;;;;;;5080862;28;20658;-75
2023/09/18 07:19:16;;;;;;;24.48;13.43;;;20.80;99.90;;;;;;5088533;28;20210;-75
2023/09/18 07:21:44;;;;;;;20.05;12.52;;;20.70;99.90;;;;;;5076029;28;20296;-75
2023/09/18 07:24:16;;;;;;;24.10;13.27;;;20.70;99.90;;;;;;5092881;28;20210;-75
2023/09/18 07:26:46;;;;;;;21.85;13.13;;;20.80;99.90;;;;;;5080957;28;20291;-75
2023/09/18 07:29:14;;;;;;;24.58;12.57;;;20.80;99.90;;;;;;5072750;28;20294;-75
2023/09/18 07:31:42;;;;;;;29.02;12.90;;;20.90;99.90;;;;;;5079632;28;20223;-75
2023/09/18 07:34:09;;;;;;;24.52;11.23;;;20.80;99.90;;;;;;5075579;28;20241;-75
2023/09/18 07:36:36;;;;;;;23.23;12.45;;;20.80;99.90;;;;;;5073594;28;20297;-73
2023/09/18 07:39:04;;;;;;;20.73;13.07;;;20.80;99.90;;;;;;5087710;28;20297;-73
2023/09/18 07:41:31;;;;;;;26.95;13.07;;;20.90;99.90;;;;;;5076469;28;20214;-73
2023/09/18 07:43:59;;;;;;;23.50;13.90;;;21.00;99.90;;;;;;5072709;28;20289;-72
2023/09/18 07:46:26;;;;;;;29.52;13.52;;;21.10;99.90;;;;;;5071886;28;20237;-72
2023/09/18 07:48:53;;;;;;;23.77;12.60;;;21.20;99.90;;;;;;5079621;28;20222;-73
2023/09/18 07:51:20;;;;;;;28.10;13.57;;;21.20;99.90;;;;;;5072020;28;20202;-73
2023/09/18 07:53:48;;;;;;;22.77;11.73;;;21.30;99.90;;;;;;5072417;28;20289;-74
2023/09/18 07:56:15;;;;;;;23.70;12.02;;;21.40;99.90;;;;;;5085709;28;20224;-73
2023/09/18 07:58:42;;;;;;;20.70;14.50;;;21.50;99.90;;;;;;5091513;28;20292;-74
2023/09/18 08:01:10;;;;;;;15.75;12.82;;;21.60;99.90;;;;;;5092207;28;20583;-74
2023/09/18 08:03:37;;;;;;;17.23;12.65;;;21.70;99.90;;;;;;5091925;28;20270;-73
2023/09/18 08:06:05;;;;;;;16.30;11.05;;;21.80;99.90;;;;;;5092289;28;20236;-74
2023/09/18 08:08:33;;;;;;;14.85;12.52;;;21.90;99.90;;;;;;5091960;28;20262;-74
2023/09/18 08:11:08;;;;;;;18.13;11.85;;;22.00;99.90;;;;;;5092464;28;20209;-74
2023/09/18 08:13:35;;;;;;;18.45;10.70;;;22.30;99.90;;;;;;5092024;28;20201;-74
2023/09/18 08:16:02;;;;;;;20.05;10.60;;;22.50;99.90;;;;;;5092245;28;20209;-74
2023/09/18 08:18:30;;;;;;;19.17;11.90;;;22.60;99.90;;;;;;5091695;28;20210;-73
2023/09/18 08:20:58;;;;;;;14.35;11.05;;;22.20;99.90;;;;;;5088872;28;20296;-73
2023/09/18 08:23:25;;;;;;;17.33;11.27;;;21.90;99.90;;;;;;5073768;28;20579;-72
2023/09/18 08:25:55;;;;;;;14.32;9.93;;;22.10;99.90;;;;;;5082856;28;20289;-73
2023/09/18 08:28:22;;;;;;;13.40;11.02;;;22.00;99.90;;;;;;5071307;28;20206;-73
2023/09/18 08:30:49;;;;;;;14.43;10.13;;;22.20;99.90;;;;;;5075873;28;20301;-73
2023/09/18 08:33:16;;;;;;;12.98;11.60;;;22.70;99.90;;;;;;5092100;28;20226;-73
2023/09/18 08:35:44;;;;;;;14.35;11.10;;;23.10;99.90;;;;;;5091772;28;20288;-73
2023/09/18 08:38:11;;;;;;;14.85;10.35;;;23.30;99.90;;;;;;5091330;28;20681;-73
2023/09/18 08:40:38;;;;;;;17.67;11.55;;;23.30;99.90;;;;;;5090134;28;20248;-73
2023/09/18 08:43:06;;;;;;;13.68;10.35;;;23.20;99.90;;;;;;5086749;28;20244;-73
2023/09/18 08:45:38;;;;;;;15.02;11.02;;;23.20;99.90;;;;;;5081938;28;20293;-73
2023/09/18 08:48:06;;;;;;;14.63;10.63;;;23.40;99.90;;;;;;5071158;28;20321;-73
2023/09/18 08:50:35;;;;;;;16.35;11.30;;;23.40;99.90;;;;;;5070834;28;20297;-73
2023/09/18 08:53:04;;;;;;;17.67;12.35;;;23.30;99.90;;;;;;5081685;28;20202;-73
2023/09/18 08:55:32;;;;;;;15.23;11.60;;;23.10;99.90;;;;;;5070798;28;20234;-74
2023/09/18 08:58:00;;;;;;;15.55;12.23;;;23.10;99.90;;;;;;5081378;28;20259;-73
2023/09/18 09:00:27;;;;;;;17.95;12.82;;;23.30;99.90;;;;;;5091179;28;20212;-73
2023/09/18 09:02:55;;;;;;;13.77;8.90;;;23.40;99.90;;;;;;5086657;28;20281;-73
2023/09/18 09:05:22;;;;;;;16.63;10.88;;;23.70;99.90;;;;;;5082473;28;20210;-73
2023/09/18 09:07:51;;;;;;;17.63;10.93;;;23.90;99.90;;;;;;5084377;28;20229;-73
2023/09/18 09:10:19;;;;;;;18.25;10.00;;;24.30;99.90;;;;;;5075276;28;20245;-73
2023/09/18 09:12:52;;;;;;;12.98;9.90;;;24.80;99.90;;;;;;5070866;28;20724;-74
2023/09/18 09:15:19;;;;;;;14.98;9.82;;;25.00;99.90;;;;;;5070748;28;20256;-73
2023/09/18 09:17:46;;;;;;;16.50;9.70;;;24.50;99.90;;;;;;5071088;28;20744;-73
2023/09/18 09:20:15;;;;;;;16.35;10.73;;;24.50;99.90;;;;;;5074106;28;20668;-74
2023/09/18 09:22:43;;;;;;;26.02;11.70;;;24.50;99.90;;;;;;5072173;28;20209;-73
2023/09/18 09:25:31;;;;;;;16.92;11.10;;;24.60;99.90;;;;;;5070722;28;20238;-72
2023/09/18 09:27:58;;;;;;;13.88;9.95;;;24.60;99.90;;;;;;5070764;28;20700;-74
2023/09/18 09:30:26;;;;;;;20.35;11.32;;;24.60;99.90;;;;;;5070400;28;20744;-73
2023/09/18 09:32:55;;;;;;;13.38;9.90;;;24.70;99.90;;;;;;5070905;28;20252;-72
2023/09/18 09:35:23;;;;;;;14.00;10.30;;;25.00;99.90;;;;;;5069845;28;20292;-74
2023/09/18 09:37:51;;;;;;;19.05;10.27;;;24.90;99.90;;;;;;5076550;28;20292;-73
2023/09/18 09:40:20;;;;;;;13.30;9.68;;;24.60;99.90;;;;;;5074452;28;20689;-72
2023/09/18 09:42:52;;;;;;;18.60;9.77;;;24.30;99.90;;;;;;5073908;28;20229;-73
2023/09/18 09:45:19;;;;;;;19.42;9.45;;;24.50;99.90;;;;;;5090907;28;20205;-73
2023/09/18 09:47:46;;;;;;;17.88;9.32;;;24.80;99.90;;;;;;5088699;28;20320;-73
2023/09/18 09:50:15;;;;;;;17.02;10.18;;;25.10;99.90;;;;;;5083792;28;20223;-74
2023/09/18 09:52:44;;;;;;;11.95;8.40;;;25.70;99.90;;;;;;5084126;28;20201;-73
2023/09/18 09:55:23;;;;;;;11.40;8.20;;;26.10;99.90;;;;;;5086792;28;20206;-73
2023/09/18 09:57:53;;;;;;;11.15;7.93;;;27.70;99.90;;;;;;5086250;28;20295;-73
2023/09/18 10:00:26;;;;;;;9.57;6.35;;;29.00;99.90;;;;;;5085785;28;20285;-73
2023/09/18 10:02:58;;;;;;;9.88;6.30;;;29.50;99.90;;;;;;5092286;28;20213;-73
2023/09/18 10:05:28;;;;;;;9.98;6.35;;;31.20;99.90;;;;;;5094016;28;20219;-74
2023/09/18 10:07:58;;;;;;;10.10;6.22;;;34.10;99.90;;;;;;5094360;28;20229;-75
2023/09/18 10:10:27;;;;;;;9.35;6.43;;;36.60;99.90;;;;;;5085857;28;20699;-73
2023/09/18 10:12:57;;;;;;;8.60;6.03;;;37.80;99.90;;;;;;5074017;28;20292;-75
2023/09/18 10:15:25;;;;;;;10.50;5.65;;;37.70;99.90;;;;;;5073508;28;20612;-73
2023/09/18 10:17:59;;;;;;;6.38;5.40;;;38.00;99.90;;;;;;5091671;28;20215;-74
2023/09/18 10:20:27;;;;;;;9.00;6.72;;;33.60;99.90;;;;;;5093847;28;20212;-74
2023/09/18 10:23:00;;;;;;;6.97;5.85;;;30.40;99.90;;;;;;5094021;28;20775;-75
2023/09/18 10:25:31;;;;;;;10.52;5.00;;;28.60;99.90;;;;;;5091190;28;20301;-73
2023/09/18 10:28:02;;;;;;;8.52;5.65;;;27.20;99.90;;;;;;5077795;28;20771;-74
2023/09/18 10:30:32;;;;;;;8.15;6.30;;;26.70;99.90;;;;;;5079434;28;20271;-73
2023/09/18 10:33:01;;;;;;;4.75;4.30;;;26.60;99.90;;;;;;5080246;28;20749;-72
2023/09/18 10:35:28;;;;;;;4.95;4.18;;;26.40;99.90;;;;;;5096653;28;20209;-72
2023/09/18 10:37:56;;;;;;;6.63;5.38;;;26.40;99.90;;;;;;5073694;28;20293;-72
2023/09/18 10:40:26;;;;;;;8.52;4.82;;;26.20;99.90;;;;;;5082144;28;20297;-75
2023/09/18 10:42:55;;;;;;;5.78;3.35;;;26.20;99.90;;;;;;5090025;28;20209;-72
2023/09/18 10:45:23;;;;;;;7.53;4.72;;;26.20;99.90;;;;;;5093424;28;20653;-72
2023/09/18 10:47:51;;;;;;;9.25;4.65;;;26.30;99.90;;;;;;5093094;28;20312;-72
2023/09/18 10:50:25;;;;;;;4.80;4.03;;;26.30;99.90;;;;;;5093440;28;20658;-72
2023/09/18 10:52:52;;;;;;;10.35;4.68;;;26.30;99.90;;;;;;5089089;28;20214;-72
2023/09/18 10:55:19;;;;;;;6.93;4.15;;;26.30;99.90;;;;;;5073451;28;20297;-72
2023/09/18 10:57:53;;;;;;;7.32;4.40;;;26.30;99.90;;;;;;5073847;28;20650;-72
2023/09/18 11:00:22;;;;;;;5.97;4.18;;;26.20;99.90;;;;;;5073195;28;20206;-72
2023/09/18 11:02:52;;;;;;;6.97;3.75;;;26.40;99.90;;;;;;5071884;28;20588;-72
2023/09/18 11:05:30;;;;;;;6.30;4.20;;;26.40;99.90;;;;;;5073017;28;20232;-72
2023/09/18 11:08:26;;;;;;;4.72;3.85;;;26.50;99.90;;;;;;5073394;28;20233;-75
2023/09/18 11:10:58;;;;;;;9.02;4.68;;;26.60;99.90;;;;;;5073425;28;20212;-73
2023/09/18 11:13:32;;;;;;;8.40;5.00;;;26.80;99.90;;;;;;5072914;28;20233;-72
2023/09/18 11:16:14;;;;;;;4.57;4.15;;;26.80;99.90;;;;;;5073311;28;20280;-72
2023/09/18 11:18:43;;;;;;;4.03;3.60;;;26.80;99.90;;;;;;5072702;28;20251;-72
2023/09/18 11:21:11;;;;;;;8.50;4.45;;;26.80;99.90;;;;;;5073055;28;20301;-72
2023/09/18 11:23:42;;;;;;;6.65;4.22;;;26.80;99.90;;;;;;5077396;28;20252;-72
2023/09/18 11:26:10;;;;;;;5.00;3.85;;;26.70;99.90;;;;;;5081524;28;20236;-72
2023/09/18 11:28:38;;;;;;;4.45;3.20;;;26.80;99.90;;;;;;5091574;28;20365;-73
2023/09/18 11:31:05;;;;;;;6.47;4.15;;;26.90;99.90;;;;;;5092157;28;20212;-71
2023/09/18 11:33:34;;;;;;;5.22;3.38;;;26.80;99.90;;;;;;5092750;28;20225;-73
2023/09/18 11:36:07;;;;;;;5.50;3.60;;;26.80;99.90;;;;;;5092974;28;20297;-72
2023/09/18 11:38:36;;;;;;;3.88;2.88;;;26.40;99.90;;;;;;5092347;28;20297;-73
2023/09/18 11:41:21;;;;;;;4.45;2.63;;;26.40;99.90;;;;;;5092272;28;20292;-71
2023/09/18 11:43:48;;;;;;;3.25;2.95;;;26.30;99.90;;;;;;5091742;28;20296;-71
2023/09/18 11:46:20;;;;;;;5.50;3.88;;;26.50;99.90;;;;;;5092315;28;20237;-71
2023/09/18 11:48:50;;;;;;;6.10;2.97;;;26.70;99.90;;;;;;5093016;28;20589;-71
2023/09/18 11:51:24;;;;;;;5.95;3.72;;;26.50;99.90;;;;;;5093262;28;20197;-71
2023/09/18 11:53:55;;;;;;;3.92;3.38;;;26.90;99.90;;;;;;5092457;28;20206;-72
2023/09/18 11:56:22;;;;;;;4.13;3.42;;;27.10;99.90;;;;;;5092419;28;20208;-73
2023/09/18 11:58:51;;;;;;;3.47;3.10;;;26.90;99.90;;;;;;5092514;28;20225;-71
2023/09/18 12:01:19;;;;;;;3.63;3.30;;;26.80;99.90;;;;;;5092584;28;20201;-71
2023/09/18 12:03:47;;;;;;;4.68;3.55;;;27.20;99.90;;;;;;5092652;28;20210;-71
2023/09/18 12:06:15;;;;;;;6.65;3.22;;;27.50;99.90;;;;;;5092692;28;20205;-71
2023/09/18 12:08:44;;;;;;;4.60;3.90;;;27.40;99.90;;;;;;5092079;28;20244;-71
2023/09/18 12:11:16;;;;;;;5.78;3.65;;;27.60;99.90;;;;;;5092429;28;20209;-71
2023/09/18 12:13:43;;;;;;;6.45;3.30;;;27.90;99.90;;;;;;5091263;28;20202;-73
2023/09/18 12:16:10;;;;;;;5.10;4.05;;;27.50;99.90;;;;;;5092247;28;20236;-72
2023/09/18 12:18:38;;;;;;;5.07;3.30;;;27.20;99.90;;;;;;5091788;28;20248;-71
2023/09/18 12:21:07;;;;;;;4.07;3.72;;;27.10;99.90;;;;;;5092088;28;20237;-72
2023/09/18 12:23:42;;;;;;;7.20;3.35;;;27.00;99.90;;;;;;5091796;28;20201;-71
2023/09/18 12:26:13;;;;;;;4.00;3.60;;;27.10;99.90;;;;;;5091988;28;20205;-73
2023/09/18 12:28:41;;;;;;;3.72;3.15;;;27.30;99.90;;;;;;5091326;28;20648;-71
2023/09/18 12:31:11;;;;;;;4.13;3.33;;;27.50;99.90;;;;;;5092155;28;20205;-71
2023/09/18 12:33:39;;;;;;;6.28;3.55;;;27.50;99.90;;;;;;5091600;28;20256;-71
2023/09/18 12:36:07;;;;;;;5.47;3.25;;;27.30;99.90;;;;;;5091859;28;20205;-71
2023/09/18 12:38:34;;;;;;;6.72;3.60;;;27.20;99.90;;;;;;5091283;28;20243;-71
2023/09/18 12:41:05;;;;;;;4.80;3.50;;;27.30;99.90;;;;;;5091808;28;20244;-71
2023/09/18 12:43:38;;;;;;;5.28;4.25;;;27.40;99.90;;;;;;5090819;28;20205;-71
2023/09/18 12:46:06;;;;;;;4.43;3.30;;;27.60;99.90;;;;;;5085916;28;20236;-70